createdAt,value
2023-01-12T00:00:13.299Z,-5.45
2023-01-12T00:02:44.539Z,-5.43
2023-01-12T00:05:16.679Z,-5.39
2023-01-12T00:07:48.821Z,-5.39
2023-01-12T00:10:20.812Z,-5.40
2023-01-12T00:12:52.935Z,-5.37
2023-01-12T00:15:43.243Z,-5.36
2023-01-12T00:18:15.345Z,-5.35
2023-01-12T00:20:51.271Z,-5.34
2023-01-12T00:23:24.971Z,-5.31
2023-01-12T00:25:57.034Z,-5.29
2023-01-12T00:28:29.162Z,-5.30
2023-01-12T00:31:08.058Z,-5.29
2023-01-12T00:33:41.148Z,-5.21
2023-01-12T00:36:14.826Z,-5.22
2023-01-12T00:38:48.740Z,-5.17
2023-01-12T00:41:38.501Z,-5.21
2023-01-12T00:44:28.173Z,-5.21
2023-01-12T00:47:00.413Z,-5.21
2023-01-12T00:49:32.275Z,-5.22
2023-01-12T00:52:04.868Z,-5.22
2023-01-12T00:54:37.719Z,-5.24
2023-01-12T00:57:09.972Z,-5.26
2023-01-12T00:59:42.517Z,-5.26
2023-01-12T01:02:14.890Z,-5.28
2023-01-12T01:04:47.005Z,-5.29
2023-01-12T01:07:20.689Z,-5.27
2023-01-12T01:09:52.190Z,-5.28
2023-01-12T01:12:23.664Z,-5.17
2023-01-12T01:14:55.794Z,-5.30
2023-01-12T01:17:28.936Z,-5.31
2023-01-12T01:20:01.482Z,-5.33
2023-01-12T01:22:34.020Z,-5.35
2023-01-12T01:25:06.587Z,-5.33
2023-01-12T01:27:38.653Z,-5.36
2023-01-12T01:30:11.407Z,-5.33
2023-01-12T01:32:43.354Z,-5.38
2023-01-12T01:35:15.277Z,-5.39
2023-01-12T01:37:47.304Z,-5.40
2023-01-12T01:40:19.520Z,-5.37
2023-01-12T01:42:51.819Z,-5.33
2023-01-12T01:45:23.968Z,-5.34
2023-01-12T01:47:58.793Z,-5.31
2023-01-12T01:50:36.369Z,-5.29
2023-01-12T01:53:11.003Z,-5.28
2023-01-12T01:55:49.956Z,-5.29
2023-01-12T01:58:33.749Z,-5.29
2023-01-12T02:01:06.212Z,-5.27
2023-01-12T02:03:39.440Z,-5.23
2023-01-12T02:06:11.772Z,-5.24
2023-01-12T02:08:49.610Z,-5.23
2023-01-12T02:11:40.165Z,-5.25
2023-01-12T02:14:30.118Z,-5.25
2023-01-12T02:17:38.180Z,-5.22
2023-01-12T02:20:21.866Z,-5.24
2023-01-12T02:23:13.036Z,-5.23
2023-01-12T02:26:20.842Z,-5.22
2023-01-12T02:29:05.176Z,-5.22
2023-01-12T02:32:03.809Z,-5.19
2023-01-12T02:34:47.359Z,-5.18
2023-01-12T02:37:40.109Z,-5.19
2023-01-12T02:40:18.193Z,-5.14
2023-01-12T02:42:56.173Z,-5.18
2023-01-12T02:45:39.963Z,-5.20
2023-01-12T02:48:24.216Z,-5.09
2023-01-12T02:51:02.144Z,-5.18
2023-01-12T02:53:49.154Z,-5.18
2023-01-12T02:56:32.925Z,-5.21
2023-01-12T02:59:10.640Z,-5.18
2023-01-12T03:01:44.867Z,-5.20
2023-01-12T03:04:18.680Z,-5.21
2023-01-12T03:06:54.274Z,-5.16
2023-01-12T03:09:28.826Z,-5.07
2023-01-12T03:12:06.717Z,-5.15
2023-01-12T03:14:41.887Z,-5.12
2023-01-12T03:17:16.923Z,-5.12
2023-01-12T03:19:50.794Z,-5.13
2023-01-12T03:22:23.916Z,-5.15
2023-01-12T03:24:58.927Z,-5.13
2023-01-12T03:27:35.835Z,-5.13
2023-01-12T03:30:11.060Z,-5.09
2023-01-12T03:32:43.926Z,-5.07
2023-01-12T03:35:17.088Z,-5.07
2023-01-12T03:37:58.513Z,-5.05
2023-01-12T03:40:36.439Z,-5.03
2023-01-12T03:43:26.386Z,-5.00
2023-01-12T03:46:16.307Z,-4.97
2023-01-12T03:49:00.053Z,-4.97
2023-01-12T03:51:35.186Z,-5.00
2023-01-12T03:54:09.900Z,-5.01
2023-01-12T03:56:43.571Z,-4.96
2023-01-12T03:59:17.000Z,-4.98
2023-01-12T04:01:49.593Z,-4.95
2023-01-12T04:04:22.986Z,-4.91
2023-01-12T04:06:55.016Z,-4.87
2023-01-12T04:09:27.006Z,-4.87
2023-01-12T04:12:11.014Z,-4.85
2023-01-12T04:14:47.916Z,-4.85
2023-01-12T04:17:20.620Z,-4.85
2023-01-12T04:19:54.253Z,-4.82
2023-01-12T04:22:44.628Z,-4.77
2023-01-12T04:25:19.736Z,-4.87
2023-01-12T04:27:56.060Z,-4.72
2023-01-12T04:30:28.892Z,-4.77
2023-01-12T04:33:02.141Z,-4.75
2023-01-12T04:35:34.092Z,-4.73
2023-01-12T04:38:10.739Z,-4.73
2023-01-12T04:40:43.187Z,-4.71
2023-01-12T04:43:15.197Z,-4.68
2023-01-12T04:45:48.112Z,-4.63
2023-01-12T04:48:20.743Z,-4.61
2023-01-12T04:50:53.705Z,-4.68
2023-01-12T04:53:26.321Z,-4.72
2023-01-12T04:55:58.985Z,-4.73
2023-01-12T04:58:31.318Z,-4.71
2023-01-12T05:01:15.488Z,-4.67
2023-01-12T05:03:48.032Z,-4.69
2023-01-12T05:06:20.150Z,-4.66
2023-01-12T05:09:10.179Z,-4.65
2023-01-12T05:11:42.635Z,-4.62
2023-01-12T05:14:14.874Z,-4.58
2023-01-12T05:16:47.229Z,-4.56
2023-01-12T05:19:19.667Z,-4.59
2023-01-12T05:21:51.911Z,-4.57
2023-01-12T05:24:24.305Z,-4.54
2023-01-12T05:26:57.052Z,-4.55
2023-01-12T05:29:30.107Z,-4.52
2023-01-12T05:32:02.145Z,-4.53
2023-01-12T05:34:34.360Z,-4.48
2023-01-12T05:37:06.470Z,-4.46
2023-01-12T05:39:38.441Z,-4.50
2023-01-12T05:42:28.066Z,-4.54
2023-01-12T05:45:00.310Z,-4.57
2023-01-12T05:47:33.543Z,-4.61
2023-01-12T05:50:06.991Z,-4.63
2023-01-12T05:52:39.491Z,-4.68
2023-01-12T05:55:12.344Z,-4.68
2023-01-12T05:57:44.568Z,-4.68
2023-01-12T06:00:17.378Z,-4.63
2023-01-12T06:02:49.512Z,-4.64
2023-01-12T06:05:22.060Z,-4.62
2023-01-12T06:07:54.254Z,-4.62
2023-01-12T06:10:26.338Z,-4.76
2023-01-12T06:13:16.010Z,-4.87
2023-01-12T06:15:48.208Z,-4.97
2023-01-12T06:18:22.711Z,-5.12
2023-01-12T06:20:55.265Z,-5.26
2023-01-12T06:23:35.544Z,-5.36
2023-01-12T06:26:06.434Z,-5.41
2023-01-12T06:28:41.057Z,-5.29
2023-01-12T06:31:16.356Z,-5.38
2023-01-12T06:33:49.306Z,-5.37
2023-01-12T06:36:21.799Z,-5.35
2023-01-12T06:38:54.301Z,-5.35
2023-01-12T06:41:44.143Z,-5.45
2023-01-12T06:44:16.489Z,-5.45
2023-01-12T06:46:48.733Z,-5.40
2023-01-12T06:49:21.290Z,-5.38
2023-01-12T06:51:53.304Z,-5.38
2023-01-12T06:54:25.347Z,-5.37
2023-01-12T06:56:57.269Z,-5.36
2023-01-12T06:59:29.836Z,-5.35
2023-01-12T07:02:03.445Z,-5.37
2023-01-12T07:04:35.888Z,-5.37
2023-01-12T07:07:09.253Z,-5.31
2023-01-12T07:09:41.330Z,-5.21
2023-01-12T07:12:13.660Z,-5.14
2023-01-12T07:14:45.985Z,-5.13
2023-01-12T07:17:18.174Z,-5.12
2023-01-12T07:19:50.431Z,-4.90
2023-01-12T07:22:22.749Z,-4.72
2023-01-12T07:24:57.569Z,-4.74
2023-01-12T07:27:28.872Z,-4.74
2023-01-12T07:30:01.022Z,-4.79
2023-01-12T07:32:33.811Z,-4.78
2023-01-12T07:35:07.916Z,-4.63
2023-01-12T07:37:40.102Z,-4.40
2023-01-12T07:40:13.256Z,-4.04
2023-01-12T07:42:45.575Z,-3.88
2023-01-12T07:45:17.608Z,-3.93
2023-01-12T07:47:55.216Z,-4.04
2023-01-12T07:50:29.035Z,-4.21
2023-01-12T07:53:04.758Z,-4.39
2023-01-12T07:55:38.955Z,-4.58
2023-01-12T07:58:11.473Z,-4.64
2023-01-12T08:00:44.536Z,-4.72
2023-01-12T08:03:16.557Z,-4.52
2023-01-12T08:05:49.638Z,-4.00
2023-01-12T08:08:22.206Z,-3.95
2023-01-12T08:10:54.749Z,-4.05
2023-01-12T08:13:26.739Z,-4.26
2023-01-12T08:16:06.179Z,-4.33
2023-01-12T08:18:47.193Z,-4.16
2023-01-12T08:21:22.055Z,-3.88
2023-01-12T08:23:56.955Z,-3.82
2023-01-12T08:26:38.204Z,-3.72
2023-01-12T08:29:19.304Z,-3.48
2023-01-12T08:31:52.193Z,-3.32
2023-01-12T08:34:24.558Z,-3.38
2023-01-12T08:36:58.831Z,-3.62
2023-01-12T08:39:31.207Z,-3.79
2023-01-12T08:42:03.856Z,-3.82
2023-01-12T08:44:36.392Z,-3.60
2023-01-12T08:47:14.635Z,-3.50
2023-01-12T08:49:46.855Z,-3.42
2023-01-12T08:52:19.042Z,-3.64
2023-01-12T08:54:51.286Z,-3.84
2023-01-12T08:57:23.395Z,-4.07
2023-01-12T08:59:55.583Z,-4.26
2023-01-12T09:02:28.189Z,-4.32
2023-01-12T09:05:00.278Z,-4.47
2023-01-12T09:07:34.024Z,-4.62
2023-01-12T09:10:06.818Z,-4.79
2023-01-12T09:12:38.734Z,-4.89
2023-01-12T09:15:11.398Z,-4.93
2023-01-12T09:17:44.616Z,-4.94
2023-01-12T09:20:17.349Z,-4.97
2023-01-12T09:22:49.559Z,-4.93
2023-01-12T09:25:21.930Z,-4.84
2023-01-12T09:27:54.075Z,-4.89
2023-01-12T09:30:26.140Z,-4.91
2023-01-12T09:32:58.942Z,-4.89
2023-01-12T09:35:31.686Z,-4.89
2023-01-12T09:38:03.736Z,-4.81
2023-01-12T09:40:35.971Z,-4.77
2023-01-12T09:43:28.786Z,-4.76
2023-01-12T09:46:18.526Z,-4.73
2023-01-12T09:48:50.965Z,-4.69
2023-01-12T09:51:28.581Z,-4.66
2023-01-12T09:54:00.557Z,-4.69
2023-01-12T09:56:38.661Z,-4.72
2023-01-12T09:59:13.913Z,-4.72
2023-01-12T10:01:46.321Z,-4.70
2023-01-12T10:04:18.574Z,-4.78
2023-01-12T10:06:51.197Z,-4.79
2023-01-12T10:09:24.681Z,-4.83
2023-01-12T10:12:00.148Z,-4.81
2023-01-12T10:14:35.102Z,-4.81
2023-01-12T10:17:12.963Z,-4.86
2023-01-12T10:20:04.258Z,-4.83
2023-01-12T10:22:54.927Z,-4.85
2023-01-12T10:25:30.101Z,-4.95
2023-01-12T10:28:03.958Z,-4.96
2023-01-12T10:30:36.336Z,-4.96
2023-01-12T10:33:17.389Z,-4.87
2023-01-12T10:36:13.473Z,-4.92
2023-01-12T10:38:57.874Z,-4.93
2023-01-12T10:41:39.755Z,-4.87
2023-01-12T10:44:17.359Z,-4.82
2023-01-12T10:46:52.621Z,-4.84
2023-01-12T10:49:27.058Z,-4.84
2023-01-12T10:52:04.623Z,-4.79
2023-01-12T10:54:41.974Z,-4.75
2023-01-12T10:57:23.490Z,-4.72
2023-01-12T10:59:58.923Z,-4.73
2023-01-12T11:02:44.761Z,-4.69
2023-01-12T11:05:36.956Z,-4.71
2023-01-12T11:08:29.825Z,-4.71
2023-01-12T11:11:05.334Z,-4.69
2023-01-12T11:13:39.397Z,-4.66
2023-01-12T11:16:23.540Z,-4.68
2023-01-12T11:19:10.350Z,-4.65
2023-01-12T11:21:45.185Z,-4.67
2023-01-12T11:24:55.155Z,-4.65
2023-01-12T11:27:32.922Z,-4.65
2023-01-12T11:30:24.697Z,-4.63
2023-01-12T11:33:04.518Z,-4.61
2023-01-12T11:35:54.379Z,-4.64
2023-01-12T11:38:29.359Z,-4.61
2023-01-12T11:41:01.445Z,-4.64
2023-01-12T11:43:51.175Z,-4.66
2023-01-12T11:46:26.914Z,-4.66
2023-01-12T11:49:07.971Z,-4.67
2023-01-12T11:51:40.940Z,-4.70
2023-01-12T11:54:19.426Z,-4.69
2023-01-12T11:57:06.825Z,-4.71
2023-01-12T11:59:47.374Z,-4.74
2023-01-12T12:02:40.058Z,-4.78
2023-01-12T12:05:27.414Z,-4.80
2023-01-12T12:08:08.884Z,-4.84
2023-01-12T12:11:02.761Z,-4.83
2023-01-12T12:13:45.180Z,-4.86
2023-01-12T12:16:31.712Z,-4.77
2023-01-12T12:19:13.096Z,-4.85
2023-01-12T12:21:50.908Z,-4.96
2023-01-12T12:24:37.813Z,-5.00
2023-01-12T12:27:25.420Z,-5.08
2023-01-12T12:30:06.004Z,-5.15
2023-01-12T12:32:49.778Z,-5.20
2023-01-12T12:35:41.712Z,-5.19
2023-01-12T12:38:21.229Z,-5.28
2023-01-12T12:41:22.876Z,-5.35
2023-01-12T12:44:31.865Z,-5.39
2023-01-12T12:47:24.870Z,-5.37
2023-01-12T12:49:59.811Z,-5.43
2023-01-12T12:52:35.615Z,-5.48
2023-01-12T12:55:09.782Z,-5.49
2023-01-12T12:58:03.199Z,-5.47
2023-01-12T13:00:46.934Z,-5.47
2023-01-12T13:03:47.325Z,-5.48
2023-01-12T13:06:40.522Z,-5.56
2023-01-12T13:09:18.255Z,-5.55
2023-01-12T13:12:02.568Z,-5.57
2023-01-12T13:14:40.163Z,-5.59
2023-01-12T13:17:24.122Z,-5.56
2023-01-12T13:20:08.471Z,-5.59
2023-01-12T13:22:52.201Z,-5.48
2023-01-12T13:25:27.959Z,-5.51
2023-01-12T13:28:03.203Z,-5.45
2023-01-12T13:30:39.862Z,-5.50
2023-01-12T13:33:24.263Z,-5.53
2023-01-12T13:36:01.579Z,-5.48
2023-01-12T13:38:39.423Z,-5.53
2023-01-12T13:41:50.738Z,-5.53
2023-01-12T13:44:32.310Z,-5.54
2023-01-12T13:47:10.458Z,-5.48
2023-01-12T13:49:50.945Z,-5.50
2023-01-12T13:52:25.896Z,-5.48
2023-01-12T13:54:58.991Z,-5.47
2023-01-12T13:57:33.271Z,-5.54
2023-01-12T14:00:11.462Z,-5.53
2023-01-12T14:02:46.879Z,-5.55
2023-01-12T14:05:51.591Z,-5.51
2023-01-12T14:08:51.683Z,-5.53
2023-01-12T14:11:25.393Z,-5.42
2023-01-12T14:14:02.180Z,-5.44
2023-01-12T14:17:04.810Z,-5.48
2023-01-12T14:19:28.184Z,-5.55
2023-01-12T14:22:02.912Z,-5.55
2023-01-12T14:24:35.000Z,-5.60
2023-01-12T14:27:10.402Z,-5.64
2023-01-12T14:29:42.792Z,-5.62
2023-01-12T14:32:15.908Z,-5.55
2023-01-12T14:34:53.295Z,-5.52
2023-01-12T14:37:31.292Z,-5.46
2023-01-12T14:40:04.401Z,-5.41
2023-01-12T14:42:54.154Z,-5.40
2023-01-12T14:45:46.038Z,-5.42
2023-01-12T14:48:23.365Z,-5.42
2023-01-12T14:51:03.805Z,-5.51
2023-01-12T14:53:43.903Z,-5.49
2023-01-12T14:56:22.041Z,-5.53
2023-01-12T14:58:55.087Z,-5.58
2023-01-12T15:01:34.109Z,-5.56
2023-01-12T15:04:09.161Z,-5.62
2023-01-12T15:06:43.848Z,-5.68
2023-01-12T15:09:31.834Z,-5.74
2023-01-12T15:12:29.440Z,-5.78
2023-01-12T15:15:26.936Z,-5.75
2023-01-12T15:18:16.732Z,-5.79
2023-01-12T15:21:06.364Z,-5.77
2023-01-12T15:23:56.813Z,-5.65
2023-01-12T15:26:28.948Z,-5.60
2023-01-12T15:29:00.915Z,-5.52
2023-01-12T15:31:35.929Z,-5.44
2023-01-12T15:34:10.372Z,-5.37
2023-01-12T15:36:42.334Z,-5.28
2023-01-12T15:39:18.131Z,-5.17
2023-01-12T15:42:07.954Z,-5.04
2023-01-12T15:44:40.131Z,-5.06
2023-01-12T15:47:16.965Z,-5.03
2023-01-12T15:49:51.513Z,-5.01
2023-01-12T15:52:26.367Z,-4.90
2023-01-12T15:54:58.762Z,-4.87
2023-01-12T15:57:32.770Z,-4.83
2023-01-12T16:00:05.438Z,-4.75
2023-01-12T16:02:39.468Z,-4.67
2023-01-12T16:05:13.595Z,-4.67
2023-01-12T16:07:48.485Z,-4.62
2023-01-12T16:10:21.172Z,-4.57
2023-01-12T16:12:54.780Z,-4.56
2023-01-12T16:15:28.930Z,-4.49
2023-01-12T16:18:01.698Z,-4.44
2023-01-12T16:20:33.943Z,-4.43
2023-01-12T16:23:05.968Z,-4.42
2023-01-12T16:25:38.594Z,-4.44
2023-01-12T16:28:10.993Z,-4.41
2023-01-12T16:30:45.813Z,-4.39
2023-01-12T16:33:18.058Z,-4.35
2023-01-12T16:35:50.480Z,-4.32
2023-01-12T16:38:22.501Z,-4.32
2023-01-12T16:40:54.970Z,-4.30
2023-01-12T16:43:27.520Z,-4.29
2023-01-12T16:45:59.909Z,-4.27
2023-01-12T16:48:33.565Z,-4.26
2023-01-12T16:51:07.228Z,-4.19
2023-01-12T16:53:40.819Z,-4.21
2023-01-12T16:56:15.144Z,-4.15
2023-01-12T16:58:50.464Z,-4.16
2023-01-12T17:01:26.818Z,-4.13
2023-01-12T17:03:59.133Z,-4.13
2023-01-12T17:06:35.131Z,-4.02
2023-01-12T17:09:07.744Z,-4.11
2023-01-12T17:11:41.430Z,-4.08
2023-01-12T17:14:27.617Z,-4.08
2023-01-12T17:17:04.960Z,-4.04
2023-01-12T17:19:38.468Z,-4.00
2023-01-12T17:22:12.735Z,-4.05
2023-01-12T17:24:44.972Z,-4.06
2023-01-12T17:27:17.237Z,-4.08
2023-01-12T17:29:49.923Z,-4.07
2023-01-12T17:32:22.213Z,-4.10
2023-01-12T17:34:54.545Z,-4.09
2023-01-12T17:37:26.562Z,-4.10
2023-01-12T17:39:58.779Z,-4.09
2023-01-12T17:42:49.606Z,-4.10
2023-01-12T17:45:21.307Z,-3.98
2023-01-12T17:47:53.346Z,-4.03
2023-01-12T17:50:25.406Z,-4.10
2023-01-12T17:52:57.258Z,-4.11
2023-01-12T17:55:29.630Z,-4.14
2023-01-12T17:58:01.777Z,-4.13
2023-01-12T18:00:34.491Z,-4.10
2023-01-12T18:03:06.754Z,-4.09
2023-01-12T18:05:39.682Z,-4.12
2023-01-12T18:08:12.793Z,-4.11
2023-01-12T18:10:44.944Z,-4.08
2023-01-12T18:13:16.817Z,-4.08
2023-01-12T18:15:48.897Z,-4.06
2023-01-12T18:18:20.928Z,-4.03
2023-01-12T18:20:53.916Z,-4.04
2023-01-12T18:23:25.977Z,-4.01
2023-01-12T18:25:59.757Z,-4.00
2023-01-12T18:28:31.975Z,-3.99
2023-01-12T18:31:12.965Z,-3.99
2023-01-12T18:33:57.637Z,-4.02
2023-01-12T18:36:29.685Z,-4.02
2023-01-12T18:39:01.965Z,-4.00
2023-01-12T18:41:53.660Z,-4.02
2023-01-12T18:44:26.431Z,-4.03
2023-01-12T18:47:17.068Z,-4.03
2023-01-12T18:49:49.369Z,-3.99
2023-01-12T18:52:39.396Z,-3.97
2023-01-12T18:55:11.385Z,-4.02
2023-01-12T18:57:43.412Z,-4.05
2023-01-12T19:00:17.030Z,-4.04
2023-01-12T19:02:48.609Z,-4.03
2023-01-12T19:05:22.199Z,-3.93
2023-01-12T19:08:01.407Z,-4.05
2023-01-12T19:10:34.360Z,-4.06
2023-01-12T19:13:24.271Z,-4.12
2023-01-12T19:16:15.300Z,-4.05
2023-01-12T19:18:47.450Z,-4.14
2023-01-12T19:21:36.979Z,-4.07
2023-01-12T19:24:29.613Z,-4.11
2023-01-12T19:27:19.404Z,-4.06
2023-01-12T19:29:51.362Z,-4.05
2023-01-12T19:32:23.911Z,-4.04
2023-01-12T19:35:02.328Z,-4.10
2023-01-12T19:37:29.890Z,-4.09
2023-01-12T19:40:06.481Z,-4.06
2023-01-12T19:42:56.163Z,-4.05
2023-01-12T19:45:28.102Z,-4.05
2023-01-12T19:48:00.367Z,-4.01
2023-01-12T19:50:32.195Z,-4.01
2023-01-12T19:53:04.729Z,-3.95
2023-01-12T19:55:37.055Z,-3.99
2023-01-12T19:58:09.388Z,-3.98
2023-01-12T20:00:46.892Z,-3.98
2023-01-12T20:03:21.254Z,-3.96
2023-01-12T20:05:53.735Z,-3.96
2023-01-12T20:08:27.440Z,-3.96
2023-01-12T20:11:03.970Z,-3.98
2023-01-12T20:13:35.071Z,-4.10
2023-01-12T20:16:08.670Z,-3.99
2023-01-12T20:18:42.245Z,-3.95
2023-01-12T20:21:14.194Z,-3.97
2023-01-12T20:23:46.344Z,-3.94
2023-01-12T20:26:18.530Z,-3.93
2023-01-12T20:28:50.567Z,-3.93
2023-01-12T20:31:23.584Z,-3.93
2023-01-12T20:33:55.683Z,-3.88
2023-01-12T20:36:27.585Z,-3.93
2023-01-12T20:39:00.368Z,-3.97
2023-01-12T20:41:32.393Z,-3.93
2023-01-12T20:44:06.672Z,-3.97
2023-01-12T20:46:37.856Z,-3.96
2023-01-12T20:49:09.820Z,-3.82
2023-01-12T20:51:41.859Z,-3.90
2023-01-12T20:54:13.869Z,-3.95
2023-01-12T20:56:45.843Z,-3.97
2023-01-12T20:59:17.728Z,-3.96
2023-01-12T21:01:49.801Z,-3.91
2023-01-12T21:04:21.895Z,-3.93
2023-01-12T21:06:54.115Z,-3.89
2023-01-12T21:09:26.256Z,-3.90
2023-01-12T21:11:58.116Z,-3.90
2023-01-12T21:14:30.487Z,-3.90
2023-01-12T21:17:03.097Z,-3.87
2023-01-12T21:19:35.512Z,-3.88
2023-01-12T21:22:07.526Z,-3.89
2023-01-12T21:24:39.540Z,-3.89
2023-01-12T21:27:11.597Z,-3.88
2023-01-12T21:29:43.624Z,-3.86
2023-01-12T21:32:15.443Z,-3.87
2023-01-12T21:34:49.069Z,-3.87
2023-01-12T21:37:22.626Z,-3.85
2023-01-12T21:39:54.589Z,-3.87
2023-01-12T21:42:44.615Z,-3.85
2023-01-12T21:45:16.728Z,-3.76
2023-01-12T21:47:48.700Z,-3.81
2023-01-12T21:50:20.868Z,-3.84
2023-01-12T21:52:52.855Z,-3.85
2023-01-12T21:55:24.920Z,-3.82
2023-01-12T21:57:57.231Z,-3.82
2023-01-12T22:00:29.927Z,-3.82
2023-01-12T22:03:02.217Z,-3.82
2023-01-12T22:05:34.960Z,-3.80
2023-01-12T22:08:07.028Z,-3.81
2023-01-12T22:10:39.012Z,-3.81
2023-01-12T22:13:13.845Z,-3.78
2023-01-12T22:15:47.713Z,-3.74
2023-01-12T22:18:20.961Z,-3.76
2023-01-12T22:20:52.969Z,-3.77
2023-01-12T22:23:24.974Z,-3.75
2023-01-12T22:25:57.047Z,-3.80
2023-01-12T22:28:29.161Z,-3.79
2023-01-12T22:31:02.515Z,-3.78
2023-01-12T22:33:34.486Z,-3.78
2023-01-12T22:36:07.983Z,-3.77
2023-01-12T22:38:40.148Z,-3.78
2023-01-12T22:41:13.209Z,-3.77
2023-01-12T22:43:45.201Z,-3.73
2023-01-12T22:46:22.860Z,-3.72
2023-01-12T22:49:02.050Z,-3.77
2023-01-12T22:51:34.319Z,-3.73
2023-01-12T22:54:06.340Z,-3.74
2023-01-12T22:56:38.779Z,-3.67
2023-01-12T22:59:11.189Z,-3.71
2023-01-12T23:01:43.325Z,-3.66
2023-01-12T23:04:15.306Z,-3.65
2023-01-12T23:06:47.632Z,-3.63
2023-01-12T23:09:19.941Z,-3.65
2023-01-12T23:11:51.973Z,-3.64
2023-01-12T23:14:24.073Z,-3.64
2023-01-12T23:16:56.077Z,-3.65
2023-01-12T23:19:28.444Z,-3.64
2023-01-12T23:22:02.206Z,-3.67
2023-01-12T23:24:34.221Z,-3.66
2023-01-12T23:27:07.063Z,-3.57
2023-01-12T23:29:39.289Z,-3.62
2023-01-12T23:32:11.361Z,-3.62
2023-01-12T23:34:43.344Z,-3.63
2023-01-12T23:37:15.373Z,-3.62
2023-01-12T23:39:47.441Z,-3.61
2023-01-12T23:42:19.412Z,-3.60
2023-01-12T23:44:52.118Z,-3.59
2023-01-12T23:47:24.559Z,-3.60
2023-01-12T23:49:57.515Z,-3.57
2023-01-12T23:52:29.837Z,-3.53
2023-01-12T23:55:01.960Z,-3.51
2023-01-12T23:57:34.417Z,-3.52
